Alida, Minnesota
Current Conditions -  °F | °C
As of 1:12 AM on Friday 19 Dec 2014 (Local Time) from KBJI Reporting Station
Overcast Overcast  
Wind Chill:   Ceiling: 4000
Heat Index: 18°   Visibility: 10mi
Dew Point: 15°   Wind: 7mph
Humidity: 88%   Direction: 160°SSE
Pressure: 30.16"   Gusts: NA
Location:  47.4609°N, 95.2384°W
Report Text: KBJI 190712Z AUTO 16006KT 10SM SCT011 OVC040 M08/M09 A3016 RMK AO2 T10761093
Loading
Personal Weather Stations






























Interactive Weather Map New forecast layout! Learn more

10-Day Weather Forecast

Advertisements
Track Severe Weather on mobile